Terminal Aerodrome Forecast
Issued by NWS Grand Forks, ND

Home | Current Version | Previous Version | Text Only | Print | Product List | Glossary Off
Versions: 1 2 3 4 5 6 7 8 9 10 11 12 13 14 15 16 17 18 19 20 21

710
FTUS43 KFGF 100349 AAA
TAFGFK
TAF AMD
KGFK 100349Z 1004/1024 VRB06KT P6SM SCT100
     FM100900 VRB05KT P6SM BKN050
     FM101300 VRB05KT P6SM -SN OVC035
     FM101800 10007KT P6SM BKN035=

USA.gov is the U.S. government's official web portal to all federal, state and local government web resources and services.